sensor_id;sensor_type;location;lat;lon;timestamp;temperature;humidity
20831;DHT22;10576;53.556;9.868;2024-03-29T00:09:17;7.60;99.90
20831;DHT22;10576;53.556;9.868;2024-03-29T00:14:09;7.50;99.90
20831;DHT22;10576;53.556;9.868;2024-03-29T00:16:35;7.50;99.90
20831;DHT22;10576;53.556;9.868;2024-03-29T00:21:26;7.50;99.90
20831;DHT22;10576;53.556;9.868;2024-03-29T00:28:44;7.40;99.90
20831;DHT22;10576;53.556;9.868;2024-03-29T00:31:09;7.40;99.90
20831;DHT22;10576;53.556;9.868;2024-03-29T00:36:02;7.20;99.90
20831;DHT22;10576;53.556;9.868;2024-03-29T00:38:27;7.40;99.90
20831;DHT22;10576;53.556;9.868;2024-03-29T00:40:53;7.30;99.90
20831;DHT22;10576;53.556;9.868;2024-03-29T00:43:18;7.30;99.90
20831;DHT22;10576;53.556;9.868;2024-03-29T00:45:44;7.20;99.90
20831;DHT22;10576;53.556;9.868;2024-03-29T00:48:10;7.10;99.90
20831;DHT22;10576;53.556;9.868;2024-03-29T00:53:03;7.10;99.90
20831;DHT22;10576;53.556;9.868;2024-03-29T00:55:29;7.10;99.90
20831;DHT22;10576;53.556;9.868;2024-03-29T00:57:55;7.10;99.90
20831;DHT22;10576;53.556;9.868;2024-03-29T01:00:21;7.00;99.90
20831;DHT22;10576;53.556;9.868;2024-03-29T01:02:46;7.10;99.90
20831;DHT22;10576;53.556;9.868;2024-03-29T01:05:12;7.20;99.90
20831;DHT22;10576;53.556;9.868;2024-03-29T01:12:32;7.20;99.90
20831;DHT22;10576;53.556;9.868;2024-03-29T01:14:59;7.10;99.90
20831;DHT22;10576;53.556;9.868;2024-03-29T01:17:24;7.10;99.90
20831;DHT22;10576;53.556;9.868;2024-03-29T01:19:50;7.00;99.90
20831;DHT22;10576;53.556;9.868;2024-03-29T01:22:15;7.20;99.90
20831;DHT22;10576;53.556;9.868;2024-03-29T01:29:33;7.10;99.90
20831;DHT22;10576;53.556;9.868;2024-03-29T01:31:58;7.10;99.90
20831;DHT22;10576;53.556;9.868;2024-03-29T01:34:24;7.10;99.90
20831;DHT22;10576;53.556;9.868;2024-03-29T01:36:50;7.10;99.90
20831;DHT22;10576;53.556;9.868;2024-03-29T01:44:10;7.00;99.90
20831;DHT22;10576;53.556;9.868;2024-03-29T01:46:37;6.90;99.90
20831;DHT22;10576;53.556;9.868;2024-03-29T01:49:04;6.90;99.90
20831;DHT22;10576;53.556;9.868;2024-03-29T01:51:31;6.90;99.90
20831;DHT22;10576;53.556;9.868;2024-03-29T01:53:57;7.00;99.90
20831;DHT22;10576;53.556;9.868;2024-03-29T01:58:51;6.90;99.90
20831;DHT22;10576;53.556;9.868;2024-03-29T02:01:19;7.00;99.90
20831;DHT22;10576;53.556;9.868;2024-03-29T02:03:45;7.00;99.90
20831;DHT22;10576;53.556;9.868;2024-03-29T02:08:39;7.00;99.90
20831;DHT22;10576;53.556;9.868;2024-03-29T02:11:04;6.90;99.90
20831;DHT22;10576;53.556;9.868;2024-03-29T02:18:23;6.90;99.90
20831;DHT22;10576;53.556;9.868;2024-03-29T02:20:49;6.90;99.90
20831;DHT22;10576;53.556;9.868;2024-03-29T02:23:26;7.00;99.90
20831;DHT22;10576;53.556;9.868;2024-03-29T02:25:54;7.00;99.90
20831;DHT22;10576;53.556;9.868;2024-03-29T02:30:51;7.10;99.90
20831;DHT22;10576;53.556;9.868;2024-03-29T02:33:17;7.10;99.90
20831;DHT22;10576;53.556;9.868;2024-03-29T02:35:43;7.00;99.90
20831;DHT22;10576;53.556;9.868;2024-03-29T02:38:09;7.00;99.90
20831;DHT22;10576;53.556;9.868;2024-03-29T02:47:52;6.80;99.90
20831;DHT22;10576;53.556;9.868;2024-03-29T02:50:18;6.80;99.90
20831;DHT22;10576;53.556;9.868;2024-03-29T02:52:43;6.80;99.90
20831;DHT22;10576;53.556;9.868;2024-03-29T02:57:39;6.90;99.90
20831;DHT22;10576;53.556;9.868;2024-03-29T03:02:31;6.90;99.90
20831;DHT22;10576;53.556;9.868;2024-03-29T03:04:56;6.80;99.90
20831;DHT22;10576;53.556;9.868;2024-03-29T03:07:22;6.90;99.90
20831;DHT22;10576;53.556;9.868;2024-03-29T03:10:06;6.90;99.90
20831;DHT22;10576;53.556;9.868;2024-03-29T03:12:50;6.80;99.90
20831;DHT22;10576;53.556;9.868;2024-03-29T03:15:16;6.80;99.90
20831;DHT22;10576;53.556;9.868;2024-03-29T03:17:42;6.80;99.90
20831;DHT22;10576;53.556;9.868;2024-03-29T03:20:07;6.70;99.90
20831;DHT22;10576;53.556;9.868;2024-03-29T03:25:01;6.70;99.90
20831;DHT22;10576;53.556;9.868;2024-03-29T03:29:52;6.70;99.90
20831;DHT22;10576;53.556;9.868;2024-03-29T03:32:18;6.90;99.90
20831;DHT22;10576;53.556;9.868;2024-03-29T03:34:44;6.70;99.90
20831;DHT22;10576;53.556;9.868;2024-03-29T03:42:01;6.70;99.90
20831;DHT22;10576;53.556;9.868;2024-03-29T03:44:27;6.70;99.90
20831;DHT22;10576;53.556;9.868;2024-03-29T03:51:45;6.50;99.90
20831;DHT22;10576;53.556;9.868;2024-03-29T03:54:11;6.50;99.90
20831;DHT22;10576;53.556;9.868;2024-03-29T03:56:37;6.50;99.90
20831;DHT22;10576;53.556;9.868;2024-03-29T04:01:28;6.30;99.90
20831;DHT22;10576;53.556;9.868;2024-03-29T04:03:54;6.40;99.90
20831;DHT22;10576;53.556;9.868;2024-03-29T04:06:19;6.40;99.90
20831;DHT22;10576;53.556;9.868;2024-03-29T04:08:45;6.40;99.90
20831;DHT22;10576;53.556;9.868;2024-03-29T04:16:05;6.30;99.90
20831;DHT22;10576;53.556;9.868;2024-03-29T04:18:31;6.20;99.90
20831;DHT22;10576;53.556;9.868;2024-03-29T04:25:56;6.20;99.90
20831;DHT22;10576;53.556;9.868;2024-03-29T04:28:22;6.30;99.90
20831;DHT22;10576;53.556;9.868;2024-03-29T04:30:57;6.40;99.90
20831;DHT22;10576;53.556;9.868;2024-03-29T04:48:04;6.30;99.90
20831;DHT22;10576;53.556;9.868;2024-03-29T04:50:30;6.30;99.90
20831;DHT22;10576;53.556;9.868;2024-03-29T04:52:56;6.40;99.90
20831;DHT22;10576;53.556;9.868;2024-03-29T04:55:21;6.30;99.90
20831;DHT22;10576;53.556;9.868;2024-03-29T05:09:57;6.40;99.90
20831;DHT22;10576;53.556;9.868;2024-03-29T05:12:22;6.60;99.90
20831;DHT22;10576;53.556;9.868;2024-03-29T05:14:48;6.50;99.90
20831;DHT22;10576;53.556;9.868;2024-03-29T05:17:15;6.50;99.90
20831;DHT22;10576;53.556;9.868;2024-03-29T05:19:41;6.60;99.90
20831;DHT22;10576;53.556;9.868;2024-03-29T05:22:06;6.60;99.90
20831;DHT22;10576;53.556;9.868;2024-03-29T05:26:58;6.60;99.90
20831;DHT22;10576;53.556;9.868;2024-03-29T05:29:23;6.60;99.90
20831;DHT22;10576;53.556;9.868;2024-03-29T05:34:15;6.80;99.90
20831;DHT22;10576;53.556;9.868;2024-03-29T05:51:16;6.90;99.90
20831;DHT22;10576;53.556;9.868;2024-03-29T05:53:42;7.10;99.90
20831;DHT22;10576;53.556;9.868;2024-03-29T06:08:18;7.20;99.90
20831;DHT22;10576;53.556;9.868;2024-03-29T06:10:45;7.30;99.90
20831;DHT22;10576;53.556;9.868;2024-03-29T06:13:11;7.20;99.90
20831;DHT22;10576;53.556;9.868;2024-03-29T06:15:53;7.30;99.90
20831;DHT22;10576;53.556;9.868;2024-03-29T06:18:37;7.30;99.90
20831;DHT22;10576;53.556;9.868;2024-03-29T06:21:03;7.20;99.90
20831;DHT22;10576;53.556;9.868;2024-03-29T06:23:28;7.40;99.90
20831;DHT22;10576;53.556;9.868;2024-03-29T06:25:54;7.30;99.90
20831;DHT22;10576;53.556;9.868;2024-03-29T06:28:19;7.40;99.90
20831;DHT22;10576;53.556;9.868;2024-03-29T06:30:45;7.40;99.90
20831;DHT22;10576;53.556;9.868;2024-03-29T06:33:11;7.40;99.90
20831;DHT22;10576;53.556;9.868;2024-03-29T06:35:37;7.40;99.90
20831;DHT22;10576;53.556;9.868;2024-03-29T06:38:02;7.40;99.90
20831;DHT22;10576;53.556;9.868;2024-03-29T06:42:54;7.60;99.90
20831;DHT22;10576;53.556;9.868;2024-03-29T06:45:21;7.70;99.90
20831;DHT22;10576;53.556;9.868;2024-03-29T06:47:47;7.90;99.90
20831;DHT22;10576;53.556;9.868;2024-03-29T06:50:13;7.90;99.90
20831;DHT22;10576;53.556;9.868;2024-03-29T06:55:05;8.10;99.90
20831;DHT22;10576;53.556;9.868;2024-03-29T06:59:57;8.10;99.90
20831;DHT22;10576;53.556;9.868;2024-03-29T07:04:49;8.10;99.90
20831;DHT22;10576;53.556;9.868;2024-03-29T07:07:15;8.30;99.90
20831;DHT22;10576;53.556;9.868;2024-03-29T07:12:08;8.30;99.90
20831;DHT22;10576;53.556;9.868;2024-03-29T07:14:34;8.40;99.90
20831;DHT22;10576;53.556;9.868;2024-03-29T07:19:26;8.50;99.90
20831;DHT22;10576;53.556;9.868;2024-03-29T07:24:19;8.60;99.90
20831;DHT22;10576;53.556;9.868;2024-03-29T07:26:45;8.60;99.90
20831;DHT22;10576;53.556;9.868;2024-03-29T07:29:11;8.60;99.90
20831;DHT22;10576;53.556;9.868;2024-03-29T07:31:37;8.70;99.90
20831;DHT22;10576;53.556;9.868;2024-03-29T07:36:28;8.80;99.90
20831;DHT22;10576;53.556;9.868;2024-03-29T07:39:00;8.90;99.90
20831;DHT22;10576;53.556;9.868;2024-03-29T07:41:25;8.90;99.90
20831;DHT22;10576;53.556;9.868;2024-03-29T07:43:53;9.10;99.90
20831;DHT22;10576;53.556;9.868;2024-03-29T07:46:22;8.90;99.90
20831;DHT22;10576;53.556;9.868;2024-03-29T07:51:14;9.00;99.90
20831;DHT22;10576;53.556;9.868;2024-03-29T07:53:40;8.90;99.90
20831;DHT22;10576;53.556;9.868;2024-03-29T07:56:05;9.00;99.90
20831;DHT22;10576;53.556;9.868;2024-03-29T08:03:23;8.90;99.90
20831;DHT22;10576;53.556;9.868;2024-03-29T08:05:59;8.90;99.90
20831;DHT22;10576;53.556;9.868;2024-03-29T08:08:26;9.10;99.90
20831;DHT22;10576;53.556;9.868;2024-03-29T08:10:53;9.10;99.90
20831;DHT22;10576;53.556;9.868;2024-03-29T08:15:47;9.10;99.90
20831;DHT22;10576;53.556;9.868;2024-03-29T08:18:13;9.00;99.90
20831;DHT22;10576;53.556;9.868;2024-03-29T08:20:38;9.00;99.90
20831;DHT22;10576;53.556;9.868;2024-03-29T08:25:30;9.10;99.90
20831;DHT22;10576;53.556;9.868;2024-03-29T08:27:55;9.10;99.90
20831;DHT22;10576;53.556;9.868;2024-03-29T08:30:27;9.10;99.90
20831;DHT22;10576;53.556;9.868;2024-03-29T08:32:57;9.30;99.90
20831;DHT22;10576;53.556;9.868;2024-03-29T08:37:51;9.30;99.90
20831;DHT22;10576;53.556;9.868;2024-03-29T08:40:17;9.30;99.90
20831;DHT22;10576;53.556;9.868;2024-03-29T08:42:43;9.40;99.90
20831;DHT22;10576;53.556;9.868;2024-03-29T08:45:09;9.30;99.90
20831;DHT22;10576;53.556;9.868;2024-03-29T08:47:35;9.60;99.90
20831;DHT22;10576;53.556;9.868;2024-03-29T08:50:01;9.50;99.90
20831;DHT22;10576;53.556;9.868;2024-03-29T08:52:29;9.70;99.90
20831;DHT22;10576;53.556;9.868;2024-03-29T08:54:54;9.80;99.90
20831;DHT22;10576;53.556;9.868;2024-03-29T08:57:20;9.90;99.90
20831;DHT22;10576;53.556;9.868;2024-03-29T09:02:12;10.00;99.90
20831;DHT22;10576;53.556;9.868;2024-03-29T09:04:37;10.00;99.90
20831;DHT22;10576;53.556;9.868;2024-03-29T09:07:03;10.10;99.90
20831;DHT22;10576;53.556;9.868;2024-03-29T09:09:29;10.10;99.90
20831;DHT22;10576;53.556;9.868;2024-03-29T09:11:55;10.20;99.90
20831;DHT22;10576;53.556;9.868;2024-03-29T09:14:21;10.20;99.90
20831;DHT22;10576;53.556;9.868;2024-03-29T09:16:47;10.20;99.90
20831;DHT22;10576;53.556;9.868;2024-03-29T09:19:13;10.30;99.90
20831;DHT22;10576;53.556;9.868;2024-03-29T09:21:39;10.20;99.90
20831;DHT22;10576;53.556;9.868;2024-03-29T09:24:05;10.20;99.90
20831;DHT22;10576;53.556;9.868;2024-03-29T09:26:32;10.10;99.90
20831;DHT22;10576;53.556;9.868;2024-03-29T09:28:58;10.00;99.90
20831;DHT22;10576;53.556;9.868;2024-03-29T09:31:23;10.00;99.90
20831;DHT22;10576;53.556;9.868;2024-03-29T09:33:51;10.00;99.90
20831;DHT22;10576;53.556;9.868;2024-03-29T09:36:23;10.00;99.90
20831;DHT22;10576;53.556;9.868;2024-03-29T09:38:49;10.00;99.90
20831;DHT22;10576;53.556;9.868;2024-03-29T09:41:16;9.80;99.90
20831;DHT22;10576;53.556;9.868;2024-03-29T09:43:45;9.80;99.90
20831;DHT22;10576;53.556;9.868;2024-03-29T09:46:13;9.90;99.90
20831;DHT22;10576;53.556;9.868;2024-03-29T09:48:44;9.80;99.90
20831;DHT22;10576;53.556;9.868;2024-03-29T09:51:12;9.80;99.90
20831;DHT22;10576;53.556;9.868;2024-03-29T09:53:42;9.80;99.90
20831;DHT22;10576;53.556;9.868;2024-03-29T09:56:08;9.90;99.90
20831;DHT22;10576;53.556;9.868;2024-03-29T09:58:35;9.80;99.90
20831;DHT22;10576;53.556;9.868;2024-03-29T10:01:06;9.70;99.90
20831;DHT22;10576;53.556;9.868;2024-03-29T10:03:39;9.90;99.90
20831;DHT22;10576;53.556;9.868;2024-03-29T10:06:05;9.90;99.90
20831;DHT22;10576;53.556;9.868;2024-03-29T10:08:34;9.80;99.90
20831;DHT22;10576;53.556;9.868;2024-03-29T10:11:00;10.00;99.90
20831;DHT22;10576;53.556;9.868;2024-03-29T10:13:26;9.90;99.90
20831;DHT22;10576;53.556;9.868;2024-03-29T10:15:52;10.00;99.90
20831;DHT22;10576;53.556;9.868;2024-03-29T10:18:21;10.00;99.90
20831;DHT22;10576;53.556;9.868;2024-03-29T10:23:24;10.10;99.90
20831;DHT22;10576;53.556;9.868;2024-03-29T10:25:50;10.00;99.90
20831;DHT22;10576;53.556;9.868;2024-03-29T10:30:41;10.00;99.90
20831;DHT22;10576;53.556;9.868;2024-03-29T10:33:07;9.90;99.90
20831;DHT22;10576;53.556;9.868;2024-03-29T10:35:33;10.00;99.90
20831;DHT22;10576;53.556;9.868;2024-03-29T10:42:52;10.10;99.90
20831;DHT22;10576;53.556;9.868;2024-03-29T10:45:17;10.00;99.90
20831;DHT22;10576;53.556;9.868;2024-03-29T10:47:43;10.10;99.90
20831;DHT22;10576;53.556;9.868;2024-03-29T10:50:12;10.10;99.90
20831;DHT22;10576;53.556;9.868;2024-03-29T10:52:39;10.10;99.90
20831;DHT22;10576;53.556;9.868;2024-03-29T10:55:09;10.10;99.90
20831;DHT22;10576;53.556;9.868;2024-03-29T10:57:41;10.00;99.90
20831;DHT22;10576;53.556;9.868;2024-03-29T11:00:12;10.10;99.90
20831;DHT22;10576;53.556;9.868;2024-03-29T11:05:33;10.30;99.90
20831;DHT22;10576;53.556;9.868;2024-03-29T11:08:02;10.30;99.90
20831;DHT22;10576;53.556;9.868;2024-03-29T11:10:42;10.40;99.90
20831;DHT22;10576;53.556;9.868;2024-03-29T11:16:04;10.40;99.90
20831;DHT22;10576;53.556;9.868;2024-03-29T11:18:30;10.40;99.90
20831;DHT22;10576;53.556;9.868;2024-03-29T11:20:58;10.40;99.90
20831;DHT22;10576;53.556;9.868;2024-03-29T11:23:27;10.40;99.90
20831;DHT22;10576;53.556;9.868;2024-03-29T11:25:54;10.50;99.90
20831;DHT22;10576;53.556;9.868;2024-03-29T11:28:38;10.40;99.90
20831;DHT22;10576;53.556;9.868;2024-03-29T11:31:07;10.50;99.90
20831;DHT22;10576;53.556;9.868;2024-03-29T11:33:35;10.60;99.90
20831;DHT22;10576;53.556;9.868;2024-03-29T11:36:11;10.50;99.90
20831;DHT22;10576;53.556;9.868;2024-03-29T11:38:38;10.80;99.90
20831;DHT22;10576;53.556;9.868;2024-03-29T11:41:07;10.70;99.90
20831;DHT22;10576;53.556;9.868;2024-03-29T11:43:35;10.90;99.90
20831;DHT22;10576;53.556;9.868;2024-03-29T11:46:05;10.80;99.90
20831;DHT22;10576;53.556;9.868;2024-03-29T11:48:31;11.00;99.90
20831;DHT22;10576;53.556;9.868;2024-03-29T11:50:57;11.10;99.90
20831;DHT22;10576;53.556;9.868;2024-03-29T11:53:23;11.20;99.90
20831;DHT22;10576;53.556;9.868;2024-03-29T11:55:49;11.20;99.90
20831;DHT22;10576;53.556;9.868;2024-03-29T11:58:23;11.30;99.90
20831;DHT22;10576;53.556;9.868;2024-03-29T12:00:49;11.40;99.90
20831;DHT22;10576;53.556;9.868;2024-03-29T12:03:16;11.40;99.90
20831;DHT22;10576;53.556;9.868;2024-03-29T12:05:46;11.50;99.90
20831;DHT22;10576;53.556;9.868;2024-03-29T12:08:12;11.60;99.90
20831;DHT22;10576;53.556;9.868;2024-03-29T12:10:39;11.90;99.90
20831;DHT22;10576;53.556;9.868;2024-03-29T12:13:05;12.00;99.90
20831;DHT22;10576;53.556;9.868;2024-03-29T12:15:31;12.10;99.90
20831;DHT22;10576;53.556;9.868;2024-03-29T12:18:01;12.40;99.90
20831;DHT22;10576;53.556;9.868;2024-03-29T12:20:34;12.30;99.90
20831;DHT22;10576;53.556;9.868;2024-03-29T12:23:01;12.50;99.90
20831;DHT22;10576;53.556;9.868;2024-03-29T12:25:31;12.50;99.90
20831;DHT22;10576;53.556;9.868;2024-03-29T12:27:58;12.40;99.90
20831;DHT22;10576;53.556;9.868;2024-03-29T12:30:24;12.50;99.90
20831;DHT22;10576;53.556;9.868;2024-03-29T12:33:03;12.60;99.90
20831;DHT22;10576;53.556;9.868;2024-03-29T12:35:31;12.70;99.90
20831;DHT22;10576;53.556;9.868;2024-03-29T12:37:59;12.70;99.90
20831;DHT22;10576;53.556;9.868;2024-03-29T12:40:27;12.70;99.90
20831;DHT22;10576;53.556;9.868;2024-03-29T12:42:56;12.70;99.90
20831;DHT22;10576;53.556;9.868;2024-03-29T12:45:22;12.60;99.90
20831;DHT22;10576;53.556;9.868;2024-03-29T12:47:49;12.70;99.90
20831;DHT22;10576;53.556;9.868;2024-03-29T12:50:35;12.70;99.90
20831;DHT22;10576;53.556;9.868;2024-03-29T12:53:02;12.80;99.90
20831;DHT22;10576;53.556;9.868;2024-03-29T12:55:29;12.90;99.90
20831;DHT22;10576;53.556;9.868;2024-03-29T12:58:00;12.80;99.90
20831;DHT22;10576;53.556;9.868;2024-03-29T13:00:27;12.80;99.90
20831;DHT22;10576;53.556;9.868;2024-03-29T13:02:53;12.80;99.90
20831;DHT22;10576;53.556;9.868;2024-03-29T13:05:19;12.70;99.90
20831;DHT22;10576;53.556;9.868;2024-03-29T13:07:45;12.60;99.90
20831;DHT22;10576;53.556;9.868;2024-03-29T13:10:10;12.60;99.90
20831;DHT22;10576;53.556;9.868;2024-03-29T13:12:43;12.70;99.90
20831;DHT22;10576;53.556;9.868;2024-03-29T13:15:20;12.80;99.90
20831;DHT22;10576;53.556;9.868;2024-03-29T13:17:47;12.70;99.90
20831;DHT22;10576;53.556;9.868;2024-03-29T13:20:15;12.60;99.90
20831;DHT22;10576;53.556;9.868;2024-03-29T13:22:44;12.90;99.90
20831;DHT22;10576;53.556;9.868;2024-03-29T13:25:15;12.90;99.90
20831;DHT22;10576;53.556;9.868;2024-03-29T13:27:42;13.10;99.90
20831;DHT22;10576;53.556;9.868;2024-03-29T13:30:10;13.10;99.90
20831;DHT22;10576;53.556;9.868;2024-03-29T13:32:36;13.20;99.90
20831;DHT22;10576;53.556;9.868;2024-03-29T13:35:03;13.30;99.90
20831;DHT22;10576;53.556;9.868;2024-03-29T13:37:36;13.30;99.90
20831;DHT22;10576;53.556;9.868;2024-03-29T13:40:02;13.10;99.90
20831;DHT22;10576;53.556;9.868;2024-03-29T13:42:29;13.00;99.90
20831;DHT22;10576;53.556;9.868;2024-03-29T13:44:55;12.90;99.90
20831;DHT22;10576;53.556;9.868;2024-03-29T13:47:21;12.80;99.90
20831;DHT22;10576;53.556;9.868;2024-03-29T13:49:46;12.80;99.90
20831;DHT22;10576;53.556;9.868;2024-03-29T13:52:12;12.60;99.90
20831;DHT22;10576;53.556;9.868;2024-03-29T13:54:44;12.70;99.90
20831;DHT22;10576;53.556;9.868;2024-03-29T13:57:11;12.80;99.90
20831;DHT22;10576;53.556;9.868;2024-03-29T13:59:37;12.80;99.90
20831;DHT22;10576;53.556;9.868;2024-03-29T14:02:03;13.00;99.90
20831;DHT22;10576;53.556;9.868;2024-03-29T14:04:29;13.00;99.90
20831;DHT22;10576;53.556;9.868;2024-03-29T14:06:54;12.80;99.90
20831;DHT22;10576;53.556;9.868;2024-03-29T14:09:21;12.90;99.90
20831;DHT22;10576;53.556;9.868;2024-03-29T14:11:46;12.80;99.90
20831;DHT22;10576;53.556;9.868;2024-03-29T14:14:12;12.80;99.90
20831;DHT22;10576;53.556;9.868;2024-03-29T14:16:38;12.60;99.90
20831;DHT22;10576;53.556;9.868;2024-03-29T14:19:03;12.60;99.90
20831;DHT22;10576;53.556;9.868;2024-03-29T14:21:29;12.70;99.90
20831;DHT22;10576;53.556;9.868;2024-03-29T14:23:57;12.80;99.90
20831;DHT22;10576;53.556;9.868;2024-03-29T14:26:23;12.80;99.90
20831;DHT22;10576;53.556;9.868;2024-03-29T14:28:48;12.90;99.90
20831;DHT22;10576;53.556;9.868;2024-03-29T14:31:14;13.20;99.90
20831;DHT22;10576;53.556;9.868;2024-03-29T14:33:40;13.20;99.90
20831;DHT22;10576;53.556;9.868;2024-03-29T14:36:06;13.10;99.90
20831;DHT22;10576;53.556;9.868;2024-03-29T14:38:32;13.20;99.90
20831;DHT22;10576;53.556;9.868;2024-03-29T14:40:57;13.10;99.90
20831;DHT22;10576;53.556;9.868;2024-03-29T14:43:23;13.10;99.90
20831;DHT22;10576;53.556;9.868;2024-03-29T14:45:49;13.30;99.90
20831;DHT22;10576;53.556;9.868;2024-03-29T14:48:17;13.30;99.90
20831;DHT22;10576;53.556;9.868;2024-03-29T14:50:43;13.30;99.90
20831;DHT22;10576;53.556;9.868;2024-03-29T14:53:09;13.30;99.90
20831;DHT22;10576;53.556;9.868;2024-03-29T14:55:35;13.30;99.90
20831;DHT22;10576;53.556;9.868;2024-03-29T14:58:07;13.50;99.90
20831;DHT22;10576;53.556;9.868;2024-03-29T15:00:33;13.50;99.90
20831;DHT22;10576;53.556;9.868;2024-03-29T15:02:59;13.60;99.90
20831;DHT22;10576;53.556;9.868;2024-03-29T15:05:24;13.60;99.90
20831;DHT22;10576;53.556;9.868;2024-03-29T15:07:52;13.50;99.90
20831;DHT22;10576;53.556;9.868;2024-03-29T15:10:18;13.10;99.90
20831;DHT22;10576;53.556;9.868;2024-03-29T15:12:45;13.40;99.90
20831;DHT22;10576;53.556;9.868;2024-03-29T15:15:12;13.20;99.90
20831;DHT22;10576;53.556;9.868;2024-03-29T15:17:37;13.20;99.90
20831;DHT22;10576;53.556;9.868;2024-03-29T15:20:03;13.10;99.90
20831;DHT22;10576;53.556;9.868;2024-03-29T15:22:31;13.10;99.90
20831;DHT22;10576;53.556;9.868;2024-03-29T15:24:58;13.10;99.90
20831;DHT22;10576;53.556;9.868;2024-03-29T15:27:24;13.30;99.90
20831;DHT22;10576;53.556;9.868;2024-03-29T15:30:16;13.40;99.90
20831;DHT22;10576;53.556;9.868;2024-03-29T15:32:42;13.30;99.90
20831;DHT22;10576;53.556;9.868;2024-03-29T15:35:08;13.20;99.90
20831;DHT22;10576;53.556;9.868;2024-03-29T15:37:35;13.20;99.90
20831;DHT22;10576;53.556;9.868;2024-03-29T15:40:00;13.10;99.90
20831;DHT22;10576;53.556;9.868;2024-03-29T15:42:26;13.10;99.90
20831;DHT22;10576;53.556;9.868;2024-03-29T15:44:52;13.30;99.90
20831;DHT22;10576;53.556;9.868;2024-03-29T15:47:18;13.20;99.90
20831;DHT22;10576;53.556;9.868;2024-03-29T15:49:43;13.30;99.90
20831;DHT22;10576;53.556;9.868;2024-03-29T15:52:09;13.00;99.90
20831;DHT22;10576;53.556;9.868;2024-03-29T15:54:35;13.00;99.90
20831;DHT22;10576;53.556;9.868;2024-03-29T15:57:00;13.10;99.90
20831;DHT22;10576;53.556;9.868;2024-03-29T15:59:26;14.30;99.90
20831;DHT22;10576;53.556;9.868;2024-03-29T16:01:52;13.00;99.90
20831;DHT22;10576;53.556;9.868;2024-03-29T16:04:18;12.80;99.90
20831;DHT22;10576;53.556;9.868;2024-03-29T16:06:44;12.90;99.90
20831;DHT22;10576;53.556;9.868;2024-03-29T16:09:10;12.90;99.90
20831;DHT22;10576;53.556;9.868;2024-03-29T16:11:37;12.90;99.90
20831;DHT22;10576;53.556;9.868;2024-03-29T16:14:04;12.80;99.90
20831;DHT22;10576;53.556;9.868;2024-03-29T16:16:30;13.00;99.90
20831;DHT22;10576;53.556;9.868;2024-03-29T16:18:56;13.00;99.90
20831;DHT22;10576;53.556;9.868;2024-03-29T16:21:22;12.90;99.90
20831;DHT22;10576;53.556;9.868;2024-03-29T16:23:48;12.90;99.90
20831;DHT22;10576;53.556;9.868;2024-03-29T16:26:14;13.10;99.90
20831;DHT22;10576;53.556;9.868;2024-03-29T16:28:40;13.10;99.90
20831;DHT22;10576;53.556;9.868;2024-03-29T16:31:05;13.10;99.90
20831;DHT22;10576;53.556;9.868;2024-03-29T16:33:31;13.00;99.90
20831;DHT22;10576;53.556;9.868;2024-03-29T16:35:57;13.10;99.90
20831;DHT22;10576;53.556;9.868;2024-03-29T16:38:24;13.00;99.90
20831;DHT22;10576;53.556;9.868;2024-03-29T16:40:49;13.00;99.90
20831;DHT22;10576;53.556;9.868;2024-03-29T16:43:15;13.00;99.90
20831;DHT22;10576;53.556;9.868;2024-03-29T16:45:41;13.00;99.90
20831;DHT22;10576;53.556;9.868;2024-03-29T16:48:07;13.00;99.90
20831;DHT22;10576;53.556;9.868;2024-03-29T16:50:34;13.10;99.90
20831;DHT22;10576;53.556;9.868;2024-03-29T16:53:01;13.10;99.90
20831;DHT22;10576;53.556;9.868;2024-03-29T16:55:26;12.40;99.90
20831;DHT22;10576;53.556;9.868;2024-03-29T16:57:53;13.00;99.90
20831;DHT22;10576;53.556;9.868;2024-03-29T17:00:19;12.90;99.90
20831;DHT22;10576;53.556;9.868;2024-03-29T17:02:45;12.70;99.90
20831;DHT22;10576;53.556;9.868;2024-03-29T17:05:12;12.90;99.90
20831;DHT22;10576;53.556;9.868;2024-03-29T17:07:38;12.70;99.90
20831;DHT22;10576;53.556;9.868;2024-03-29T17:10:04;12.80;99.90
20831;DHT22;10576;53.556;9.868;2024-03-29T17:12:30;12.80;99.90
20831;DHT22;10576;53.556;9.868;2024-03-29T17:14:56;12.70;99.90
20831;DHT22;10576;53.556;9.868;2024-03-29T17:17:22;12.80;99.90
20831;DHT22;10576;53.556;9.868;2024-03-29T17:19:51;12.60;99.90
20831;DHT22;10576;53.556;9.868;2024-03-29T17:22:18;12.70;99.90
20831;DHT22;10576;53.556;9.868;2024-03-29T17:24:43;12.70;99.90
20831;DHT22;10576;53.556;9.868;2024-03-29T17:27:09;12.80;99.90
20831;DHT22;10576;53.556;9.868;2024-03-29T17:29:35;12.60;99.90
20831;DHT22;10576;53.556;9.868;2024-03-29T17:32:04;12.60;99.90
20831;DHT22;10576;53.556;9.868;2024-03-29T17:34:29;12.60;99.90
20831;DHT22;10576;53.556;9.868;2024-03-29T17:36:55;12.40;99.90
20831;DHT22;10576;53.556;9.868;2024-03-29T17:39:20;12.20;99.90
20831;DHT22;10576;53.556;9.868;2024-03-29T17:41:47;12.40;99.90
20831;DHT22;10576;53.556;9.868;2024-03-29T17:44:13;12.70;99.90
20831;DHT22;10576;53.556;9.868;2024-03-29T17:46:39;12.40;99.90
20831;DHT22;10576;53.556;9.868;2024-03-29T17:49:05;12.30;99.90
20831;DHT22;10576;53.556;9.868;2024-03-29T17:51:31;12.30;99.90
20831;DHT22;10576;53.556;9.868;2024-03-29T17:53:58;12.10;99.90
20831;DHT22;10576;53.556;9.868;2024-03-29T17:56:24;12.30;99.90
20831;DHT22;10576;53.556;9.868;2024-03-29T17:58:49;12.20;99.90
20831;DHT22;10576;53.556;9.868;2024-03-29T18:01:15;12.20;99.90
20831;DHT22;10576;53.556;9.868;2024-03-29T18:03:41;12.10;99.90
20831;DHT22;10576;53.556;9.868;2024-03-29T18:06:07;12.00;99.90
20831;DHT22;10576;53.556;9.868;2024-03-29T18:08:33;12.00;99.90
20831;DHT22;10576;53.556;9.868;2024-03-29T18:10:59;11.90;99.90
20831;DHT22;10576;53.556;9.868;2024-03-29T18:13:24;11.90;99.90
20831;DHT22;10576;53.556;9.868;2024-03-29T18:15:51;12.00;99.90
20831;DHT22;10576;53.556;9.868;2024-03-29T18:18:17;12.00;99.90
20831;DHT22;10576;53.556;9.868;2024-03-29T18:20:43;12.00;99.90
20831;DHT22;10576;53.556;9.868;2024-03-29T18:23:10;12.00;99.90
20831;DHT22;10576;53.556;9.868;2024-03-29T18:25:36;12.00;99.90
20831;DHT22;10576;53.556;9.868;2024-03-29T18:28:02;11.90;99.90
20831;DHT22;10576;53.556;9.868;2024-03-29T18:30:34;11.80;99.90
20831;DHT22;10576;53.556;9.868;2024-03-29T18:33:05;11.70;99.90
20831;DHT22;10576;53.556;9.868;2024-03-29T18:35:30;11.70;99.90
20831;DHT22;10576;53.556;9.868;2024-03-29T18:37:56;11.70;99.90
20831;DHT22;10576;53.556;9.868;2024-03-29T18:42:48;11.20;99.90
20831;DHT22;10576;53.556;9.868;2024-03-29T18:45:15;11.50;99.90
20831;DHT22;10576;53.556;9.868;2024-03-29T18:47:47;11.40;99.90
20831;DHT22;10576;53.556;9.868;2024-03-29T18:50:13;11.30;99.90
20831;DHT22;10576;53.556;9.868;2024-03-29T18:52:38;11.10;99.90
20831;DHT22;10576;53.556;9.868;2024-03-29T18:55:04;11.50;99.90
20831;DHT22;10576;53.556;9.868;2024-03-29T18:57:30;11.30;99.90